createdAt,value
2018-08-24T00:00:38.393Z,60.80
2018-08-24T00:01:38.413Z,60.40
2018-08-24T00:02:38.385Z,61.10
2018-08-24T00:03:38.354Z,61.10
2018-08-24T00:04:38.347Z,61.20
2018-08-24T00:05:38.404Z,62.20
2018-08-24T00:06:38.326Z,58.70
2018-08-24T00:07:38.332Z,59.90
2018-08-24T00:08:38.328Z,59.30
2018-08-24T00:09:38.301Z,58.40
2018-08-24T00:10:38.354Z,58.20
2018-08-24T00:11:38.279Z,58.90
2018-08-24T00:12:38.270Z,59.80
2018-08-24T00:13:38.284Z,60.30
2018-08-24T00:14:38.254Z,58.50
2018-08-24T00:15:38.272Z,57.80
2018-08-24T00:16:38.241Z,58.50
2018-08-24T00:17:38.235Z,59.70
2018-08-24T00:18:38.190Z,58.90
2018-08-24T00:19:38.186Z,59.50
2018-08-24T00:20:38.184Z,58.40
2018-08-24T00:21:38.197Z,59.50
2018-08-24T00:22:38.154Z,57.30
2018-08-24T00:23:38.158Z,57.30
2018-08-24T00:24:38.137Z,57.40
2018-08-24T00:25:38.120Z,58.80
2018-08-24T00:26:38.145Z,58.70
2018-08-24T00:27:38.098Z,58.60
2018-08-24T00:28:38.078Z,59.80
2018-08-24T00:29:38.096Z,57.20
2018-08-24T00:30:38.062Z,57.40
2018-08-24T00:31:38.092Z,57.80
2018-08-24T00:32:38.049Z,58.30
2018-08-24T00:33:38.024Z,59.50
2018-08-24T00:34:38.018Z,58.70
2018-08-24T00:35:38.000Z,58.10
2018-08-24T00:36:38.044Z,57.30
2018-08-24T00:37:37.965Z,55.60
2018-08-24T00:38:37.962Z,58.00
2018-08-24T00:39:37.948Z,56.80
2018-08-24T00:40:37.981Z,58.10
2018-08-24T00:41:37.972Z,58.10
2018-08-24T00:42:37.971Z,58.00
2018-08-24T00:43:37.900Z,57.60
2018-08-24T00:44:37.920Z,57.20
2018-08-24T00:45:37.876Z,58.60
2018-08-24T00:46:37.864Z,57.50
2018-08-24T00:47:37.859Z,55.50
2018-08-24T00:48:37.851Z,58.40
2018-08-24T00:49:37.880Z,58.20
2018-08-24T00:50:37.821Z,57.60
2018-08-24T00:51:37.819Z,57.10
2018-08-24T00:52:37.828Z,59.00
2018-08-24T00:53:37.790Z,59.20
2018-08-24T00:54:37.792Z,58.50
2018-08-24T00:55:37.796Z,58.60
2018-08-24T00:56:37.762Z,57.70
2018-08-24T00:57:37.742Z,57.60
2018-08-24T00:58:37.737Z,57.10
2018-08-24T00:59:37.751Z,56.20
2018-08-24T01:00:37.712Z,57.40
2018-08-24T01:01:37.714Z,59.30
2018-08-24T01:02:37.696Z,59.70
2018-08-24T01:03:37.670Z,60.10
2018-08-24T01:04:37.693Z,60.60
2018-08-24T01:05:37.646Z,58.40
2018-08-24T01:06:37.691Z,58.20
2018-08-24T01:07:37.707Z,56.90
2018-08-24T01:08:37.633Z,57.40
2018-08-24T01:09:37.608Z,57.60
2018-08-24T01:10:37.605Z,55.70
2018-08-24T01:11:37.628Z,57.70
2018-08-24T01:12:37.582Z,57.90
2018-08-24T01:13:37.575Z,58.10
2018-08-24T01:14:37.578Z,57.20
2018-08-24T01:15:37.593Z,57.70
2018-08-24T01:16:37.548Z,55.70
2018-08-24T01:17:37.520Z,55.90
2018-08-24T01:18:37.561Z,54.70
2018-08-24T01:19:37.501Z,55.60
2018-08-24T01:20:37.518Z,53.90
2018-08-24T01:21:37.502Z,55.50
2018-08-24T01:22:37.494Z,55.80
2018-08-24T01:23:37.454Z,58.70
2018-08-24T01:24:37.446Z,58.20
2018-08-24T01:25:37.441Z,59.10
2018-08-24T01:26:37.420Z,58.70
2018-08-24T01:27:37.478Z,58.50
2018-08-24T01:28:37.398Z,59.00
2018-08-24T01:29:37.392Z,59.80
2018-08-24T01:30:37.380Z,60.10
2018-08-24T01:31:37.420Z,57.60
2018-08-24T01:32:37.352Z,59.60
2018-08-24T01:33:37.375Z,60.30
2018-08-24T01:34:37.334Z,58.60
2018-08-24T01:35:37.314Z,58.60
2018-08-24T01:36:37.316Z,58.40
2018-08-24T01:37:37.324Z,58.40
2018-08-24T01:38:37.330Z,57.90
2018-08-24T01:39:37.270Z,59.90
2018-08-24T01:40:37.262Z,58.10
2018-08-24T01:41:37.242Z,57.70
2018-08-24T01:42:37.276Z,57.40
2018-08-24T01:43:37.224Z,58.10
2018-08-24T01:44:37.207Z,58.30
2018-08-24T01:45:37.202Z,58.90
2018-08-24T01:46:37.180Z,59.20
2018-08-24T01:47:37.198Z,58.00
2018-08-24T01:48:37.192Z,57.00
2018-08-24T01:49:37.185Z,57.50
2018-08-24T01:50:37.139Z,58.90
2018-08-24T01:51:37.131Z,58.10
2018-08-24T01:52:37.115Z,57.60
2018-08-24T01:53:37.141Z,57.60
2018-08-24T01:54:37.086Z,57.90
2018-08-24T01:55:37.113Z,58.90
2018-08-24T01:56:37.071Z,57.80
2018-08-24T01:57:37.072Z,58.00
2018-08-24T01:58:37.054Z,59.60
2018-08-24T01:59:37.080Z,59.10
2018-08-24T02:00:37.034Z,60.20
2018-08-24T02:01:37.018Z,58.80
2018-08-24T02:02:37.028Z,59.20
2018-08-24T02:03:36.998Z,59.80
2018-08-24T02:04:37.012Z,59.00
2018-08-24T02:05:36.986Z,59.90
2018-08-24T02:06:37.008Z,59.50
2018-08-24T02:07:36.948Z,60.20
2018-08-24T02:08:36.945Z,59.40
2018-08-24T02:09:36.928Z,59.50
2018-08-24T02:10:36.952Z,59.90
2018-08-24T02:11:36.909Z,58.60
2018-08-24T02:12:36.895Z,59.20
2018-08-24T02:13:36.869Z,58.20
2018-08-24T02:14:36.932Z,61.40
2018-08-24T02:15:36.889Z,61.20
2018-08-24T02:16:36.843Z,59.20
2018-08-24T02:17:36.827Z,58.10
2018-08-24T02:18:36.827Z,59.80
2018-08-24T02:19:36.841Z,59.20
2018-08-24T02:20:36.793Z,60.10
2018-08-24T02:21:36.781Z,59.00
2018-08-24T02:22:36.771Z,58.70
2018-08-24T02:23:36.761Z,59.20
2018-08-24T02:24:36.787Z,58.40
2018-08-24T02:25:36.743Z,59.30
2018-08-24T02:26:36.722Z,60.70
2018-08-24T02:27:36.727Z,59.80
2018-08-24T02:28:36.699Z,59.80
2018-08-24T02:29:36.733Z,59.80
2018-08-24T02:30:36.681Z,58.10
2018-08-24T02:31:36.666Z,61.30
2018-08-24T02:32:36.658Z,58.20
2018-08-24T02:33:36.649Z,59.20
2018-08-24T02:34:36.675Z,60.50
2018-08-24T02:35:36.626Z,59.40
2018-08-24T02:36:36.633Z,60.40
2018-08-24T02:37:36.597Z,58.80
2018-08-24T02:38:36.590Z,60.30
2018-08-24T02:39:36.607Z,60.90
2018-08-24T02:40:36.598Z,59.80
2018-08-24T02:41:36.565Z,59.80
2018-08-24T02:42:36.544Z,60.90
2018-08-24T02:43:36.524Z,61.80
2018-08-24T02:44:36.521Z,60.70
2018-08-24T02:45:36.558Z,59.70
2018-08-24T02:46:36.498Z,59.60
2018-08-24T02:47:36.502Z,60.40
2018-08-24T02:48:36.476Z,60.10
2018-08-24T02:49:36.470Z,61.00
2018-08-24T02:50:36.497Z,60.50
2018-08-24T02:51:36.441Z,61.40
2018-08-24T02:52:36.438Z,59.90
2018-08-24T02:53:36.450Z,57.90
2018-08-24T02:54:36.420Z,58.80
2018-08-24T02:55:36.446Z,57.90
2018-08-24T02:56:36.381Z,57.50
2018-08-24T02:57:36.380Z,57.00
2018-08-24T02:58:36.362Z,56.60
2018-08-24T02:59:36.364Z,57.80
2018-08-24T03:00:36.370Z,57.20
2018-08-24T03:01:36.340Z,60.40
2018-08-24T03:02:36.332Z,58.90
2018-08-24T03:03:36.322Z,60.40
2018-08-24T03:04:36.302Z,58.70
2018-08-24T03:05:36.478Z,57.90
2018-08-24T03:06:36.310Z,57.10
2018-08-24T03:07:36.267Z,59.70
2018-08-24T03:08:36.246Z,61.50
2018-08-24T03:09:36.246Z,60.00
2018-08-24T03:10:36.240Z,60.30
2018-08-24T03:11:36.258Z,59.50
2018-08-24T03:12:36.209Z,59.20
2018-08-24T03:13:36.191Z,59.70
2018-08-24T03:14:36.182Z,60.00
2018-08-24T03:15:36.210Z,58.80
2018-08-24T03:16:36.217Z,59.30
2018-08-24T03:17:36.150Z,60.60
2018-08-24T03:18:36.127Z,59.10
2018-08-24T03:19:36.125Z,60.80
2018-08-24T03:20:36.103Z,58.60
2018-08-24T03:21:36.140Z,58.90
2018-08-24T03:22:36.095Z,58.00
2018-08-24T03:23:36.071Z,59.20
2018-08-24T03:24:36.063Z,61.00
2018-08-24T03:25:36.050Z,58.90
2018-08-24T03:26:36.065Z,58.60
2018-08-24T03:27:36.117Z,59.10
2018-08-24T03:28:36.027Z,58.20
2018-08-24T03:29:36.003Z,59.60
2018-08-24T03:30:35.995Z,55.60
2018-08-24T03:31:35.987Z,57.30
2018-08-24T03:32:35.998Z,56.00
2018-08-24T03:33:35.957Z,56.70
2018-08-24T03:34:35.944Z,56.90
2018-08-24T03:35:35.983Z,56.10
2018-08-24T03:36:35.923Z,56.10
2018-08-24T03:37:35.957Z,58.10
2018-08-24T03:38:35.917Z,57.80
2018-08-24T03:39:35.886Z,57.90
2018-08-24T03:40:35.876Z,56.90
2018-08-24T03:41:35.874Z,57.10
2018-08-24T03:42:35.905Z,57.60
2018-08-24T03:43:35.841Z,58.70
2018-08-24T03:44:35.834Z,57.30
2018-08-24T03:45:35.818Z,57.70
2018-08-24T03:46:35.816Z,59.30
2018-08-24T03:47:35.824Z,58.30
2018-08-24T03:48:35.792Z,59.10
2018-08-24T03:49:35.778Z,59.50
2018-08-24T03:50:35.773Z,59.30
2018-08-24T03:51:35.768Z,58.30
2018-08-24T03:52:35.796Z,59.40
2018-08-24T03:53:35.739Z,60.90
2018-08-24T03:54:35.727Z,58.70
2018-08-24T03:55:35.710Z,57.40
2018-08-24T03:56:35.701Z,56.70
2018-08-24T03:57:35.742Z,57.90
2018-08-24T03:58:35.714Z,58.00
2018-08-24T03:59:35.672Z,57.50
2018-08-24T04:00:35.683Z,57.30
2018-08-24T04:01:35.649Z,55.30
2018-08-24T04:02:35.631Z,56.60
2018-08-24T04:03:35.666Z,55.50
2018-08-24T04:04:35.631Z,54.80
2018-08-24T04:05:35.603Z,56.00
2018-08-24T04:06:35.594Z,53.90
2018-08-24T04:07:35.580Z,53.60
2018-08-24T04:08:35.614Z,53.70
2018-08-24T04:09:35.552Z,54.50
2018-08-24T04:10:35.551Z,53.80
2018-08-24T04:11:35.540Z,52.90
2018-08-24T04:12:35.513Z,53.10
2018-08-24T04:13:35.561Z,52.20
2018-08-24T04:14:35.502Z,51.20
2018-08-24T04:15:35.481Z,51.40
2018-08-24T04:16:35.475Z,51.00
2018-08-24T04:17:35.465Z,48.20
2018-08-24T04:18:35.496Z,50.40
2018-08-24T04:19:35.535Z,51.10
2018-08-24T04:20:35.437Z,49.30
2018-08-24T04:21:35.421Z,48.30
2018-08-24T04:22:35.403Z,49.70
2018-08-24T04:23:35.433Z,50.50
2018-08-24T04:24:35.371Z,48.90
2018-08-24T04:25:35.385Z,49.60
2018-08-24T04:26:35.359Z,51.20
2018-08-24T04:27:35.380Z,49.30
2018-08-24T04:28:35.377Z,48.80
2018-08-24T04:29:35.317Z,50.00
2018-08-24T04:30:35.306Z,50.00
2018-08-24T04:31:35.295Z,49.90
2018-08-24T04:32:35.297Z,50.10
2018-08-24T04:33:35.331Z,50.70
2018-08-24T04:34:35.263Z,50.20
2018-08-24T04:35:35.255Z,50.00
2018-08-24T04:36:35.238Z,50.20
2018-08-24T04:37:35.227Z,49.40
2018-08-24T04:38:35.252Z,48.40
2018-08-24T04:39:35.208Z,48.20
2018-08-24T04:40:35.203Z,48.50
2018-08-24T04:41:35.179Z,49.20
2018-08-24T04:42:35.201Z,48.50
2018-08-24T04:43:35.163Z,47.30
2018-08-24T04:44:35.151Z,50.60
2018-08-24T04:45:35.166Z,47.70
2018-08-24T04:46:35.149Z,46.90
2018-08-24T04:47:35.151Z,47.90
2018-08-24T04:48:35.110Z,46.70
2018-08-24T04:49:35.097Z,46.40
2018-08-24T04:50:35.081Z,48.10
2018-08-24T04:51:35.102Z,47.70
2018-08-24T04:52:35.104Z,46.40
2018-08-24T04:53:35.053Z,47.00
2018-08-24T04:54:35.051Z,46.00
2018-08-24T04:55:35.070Z,46.30
2018-08-24T04:56:35.018Z,46.50
2018-08-24T04:57:35.020Z,44.90
2018-08-24T04:58:35.065Z,45.00
2018-08-24T04:59:34.984Z,45.50
2018-08-24T05:00:35.047Z,44.20
2018-08-24T05:01:34.957Z,43.90
2018-08-24T05:02:34.949Z,43.90
2018-08-24T05:03:34.951Z,43.70
2018-08-24T05:04:34.931Z,44.30
2018-08-24T05:05:34.982Z,43.80
2018-08-24T05:06:34.917Z,43.40
2018-08-24T05:07:34.907Z,43.30
2018-08-24T05:08:34.895Z,42.60
2018-08-24T05:09:34.878Z,42.90
2018-08-24T05:10:34.897Z,42.50
2018-08-24T05:11:34.853Z,42.10
2018-08-24T05:12:34.844Z,41.90
2018-08-24T05:13:34.826Z,43.40
2018-08-24T05:14:34.817Z,43.70
2018-08-24T05:15:34.867Z,41.10
2018-08-24T05:16:34.793Z,41.50
2018-08-24T05:17:34.787Z,42.90
2018-08-24T05:18:34.773Z,40.70
2018-08-24T05:19:34.781Z,42.30
2018-08-24T05:20:34.795Z,40.20
2018-08-24T05:21:34.741Z,41.20
2018-08-24T05:22:34.761Z,41.60
2018-08-24T05:23:34.713Z,40.00
2018-08-24T05:24:34.713Z,41.40
2018-08-24T05:25:34.724Z,39.80
2018-08-24T05:26:34.672Z,40.00
2018-08-24T05:27:34.676Z,40.20
2018-08-24T05:28:34.657Z,40.50
2018-08-24T05:29:34.649Z,39.00
2018-08-24T05:30:34.696Z,39.10
2018-08-24T05:31:34.664Z,38.40
2018-08-24T05:32:34.668Z,38.80
2018-08-24T05:33:34.632Z,37.80
2018-08-24T05:34:34.604Z,38.50
2018-08-24T05:35:34.634Z,38.20
2018-08-24T05:36:34.643Z,38.60
2018-08-24T05:37:34.585Z,37.90
2018-08-24T05:38:34.592Z,37.30
2018-08-24T05:39:34.533Z,37.50
2018-08-24T05:40:34.517Z,36.70
2018-08-24T05:41:34.665Z,36.70
2018-08-24T05:42:34.610Z,37.30
2018-08-24T05:43:34.498Z,37.00
2018-08-24T05:44:34.469Z,36.40
2018-08-24T05:45:34.461Z,35.50
2018-08-24T05:46:34.469Z,35.60
2018-08-24T05:47:34.581Z,35.60
2018-08-24T05:48:34.441Z,35.40
2018-08-24T05:49:34.435Z,36.40
2018-08-24T05:50:34.404Z,34.70
2018-08-24T05:51:34.413Z,35.10
2018-08-24T05:52:34.423Z,34.90
2018-08-24T05:53:34.367Z,34.90
2018-08-24T05:54:34.358Z,35.20
2018-08-24T05:55:34.389Z,33.90
2018-08-24T05:56:34.333Z,35.10
2018-08-24T05:57:34.363Z,32.60
2018-08-24T05:58:34.319Z,33.60
2018-08-24T05:59:34.314Z,34.10
2018-08-24T06:00:34.312Z,34.10
2018-08-24T06:01:34.295Z,33.30
2018-08-24T06:02:34.321Z,32.60
2018-08-24T06:03:34.265Z,33.20
2018-08-24T06:04:34.278Z,33.20
2018-08-24T06:05:34.264Z,33.00
2018-08-24T06:06:34.231Z,33.20
2018-08-24T06:07:34.256Z,33.00
2018-08-24T06:08:34.206Z,32.40
2018-08-24T06:09:34.233Z,31.90
2018-08-24T06:10:34.187Z,33.20
2018-08-24T06:11:34.180Z,32.70
2018-08-24T06:12:34.224Z,32.30
2018-08-24T06:13:34.147Z,32.80
2018-08-24T06:14:34.142Z,33.20
2018-08-24T06:15:34.113Z,31.10
2018-08-24T06:16:34.132Z,31.00
2018-08-24T06:17:34.149Z,30.30
2018-08-24T06:18:34.088Z,29.80
2018-08-24T06:19:34.097Z,30.30
2018-08-24T06:20:34.073Z,30.10
2018-08-24T06:21:34.062Z,28.80
2018-08-24T06:22:34.131Z,25.50
2018-08-24T06:23:34.029Z,23.80
2018-08-24T06:24:34.092Z,22.20
2018-08-24T06:25:34.043Z,21.80
2018-08-24T06:26:34.091Z,18.10
2018-08-24T06:27:34.027Z,17.40
2018-08-24T06:28:33.977Z,14.50
2018-08-24T06:29:33.971Z,13.10
2018-08-24T06:30:33.956Z,11.50
2018-08-24T06:31:33.950Z,10.10
2018-08-24T06:32:34.004Z,9.20
2018-08-24T06:33:33.932Z,8.20
2018-08-24T06:34:33.914Z,7.00
2018-08-24T06:35:33.896Z,6.60
2018-08-24T06:36:33.896Z,6.20
2018-08-24T06:37:33.946Z,5.70
2018-08-24T06:38:33.865Z,5.10
2018-08-24T06:39:33.858Z,4.70
2018-08-24T06:40:33.863Z,4.00
2018-08-24T06:41:33.838Z,3.80
2018-08-24T06:42:33.870Z,3.90
2018-08-24T06:43:33.814Z,3.50
2018-08-24T06:44:33.797Z,2.70
2018-08-24T06:45:33.798Z,2.70
2018-08-24T06:46:33.795Z,2.10
2018-08-24T06:47:33.857Z,2.20
2018-08-24T06:48:33.808Z,2.10
2018-08-24T06:49:33.746Z,1.70
2018-08-24T06:50:33.730Z,1.60
2018-08-24T06:51:33.770Z,1.30
2018-08-24T06:52:33.712Z,1.50
2018-08-24T06:53:33.933Z,1.30
2018-08-24T06:54:33.696Z,1.40
2018-08-24T06:55:33.672Z,1.00
2018-08-24T06:56:33.740Z,1.20
2018-08-24T06:57:33.705Z,1.00
2018-08-24T06:58:33.646Z,0.80
2018-08-24T06:59:33.783Z,1.10
2018-08-24T07:00:33.626Z,1.20
2018-08-24T07:01:33.610Z,1.00
2018-08-24T07:02:33.591Z,0.80
2018-08-24T07:03:33.591Z,1.30
2018-08-24T07:04:33.621Z,0.80
2018-08-24T07:05:33.572Z,1.20
2018-08-24T07:06:33.545Z,0.80
2018-08-24T07:07:33.603Z,0.90
2018-08-24T07:08:33.549Z,1.10
2018-08-24T07:09:33.518Z,1.10
2018-08-24T07:10:33.541Z,0.90
2018-08-24T07:11:33.502Z,0.90
2018-08-24T07:12:33.598Z,1.00
2018-08-24T07:13:33.501Z,0.80
2018-08-24T07:14:33.457Z,1.00
2018-08-24T07:15:33.590Z,1.60
2018-08-24T07:16:33.444Z,1.40
2018-08-24T07:17:33.467Z,1.10
2018-08-24T07:18:33.416Z,0.90
2018-08-24T07:19:33.469Z,1.20
2018-08-24T07:20:33.453Z,1.30
2018-08-24T07:21:33.388Z,1.30
2018-08-24T07:22:33.374Z,0.90
2018-08-24T07:23:33.392Z,1.10
2018-08-24T07:24:33.389Z,1.10
2018-08-24T07:25:33.416Z,1.10
2018-08-24T07:26:34.013Z,2.20
2018-08-24T07:27:33.369Z,1.40
2018-08-24T07:28:33.296Z,1.30
2018-08-24T07:29:33.294Z,1.30
2018-08-24T07:30:33.341Z,1.10
2018-08-24T07:31:33.277Z,1.50
2018-08-24T07:32:33.365Z,1.50
2018-08-24T07:33:33.254Z,1.30
2018-08-24T07:34:33.243Z,1.10
2018-08-24T07:35:35.339Z,1.20
2018-08-24T07:36:34.765Z,1.30
2018-08-24T07:37:33.749Z,1.10
2018-08-24T07:38:33.187Z,1.50
2018-08-24T07:39:33.187Z,1.30
2018-08-24T07:40:33.169Z,1.20
2018-08-24T07:41:33.232Z,1.50
2018-08-24T07:42:33.178Z,1.20
2018-08-24T07:43:33.137Z,1.10
2018-08-24T07:44:33.143Z,1.40
2018-08-24T07:45:33.111Z,1.30
2018-08-24T07:46:33.099Z,1.40
2018-08-24T07:47:33.185Z,1.40
2018-08-24T07:48:33.109Z,1.40
2018-08-24T07:49:33.071Z,1.50
2018-08-24T07:50:33.080Z,1.50
2018-08-24T07:51:33.058Z,1.30
2018-08-24T07:52:33.069Z,1.30
2018-08-24T07:53:33.079Z,1.50
2018-08-24T07:54:33.044Z,1.40
2018-08-24T07:55:33.013Z,1.40
2018-08-24T07:56:33.045Z,1.30
2018-08-24T07:57:32.984Z,1.30
2018-08-24T07:58:32.997Z,1.40
2018-08-24T07:59:32.964Z,1.30
2018-08-24T08:00:32.945Z,1.20
2018-08-24T08:01:32.932Z,1.30
2018-08-24T08:02:32.963Z,1.70
2018-08-24T08:03:32.915Z,1.20
2018-08-24T08:04:32.902Z,1.60
2018-08-24T08:05:32.886Z,1.60
2018-08-24T08:06:32.888Z,1.50
2018-08-24T08:07:32.899Z,1.50
2018-08-24T08:08:32.855Z,1.30
2018-08-24T08:09:32.832Z,1.40
2018-08-24T08:10:32.820Z,1.60
2018-08-24T08:11:32.820Z,1.60
2018-08-24T08:12:32.881Z,1.50
2018-08-24T08:13:32.806Z,1.70
2018-08-24T08:14:32.850Z,1.50
2018-08-24T08:15:32.763Z,1.60
2018-08-24T08:16:32.763Z,1.50
2018-08-24T08:17:32.745Z,1.70
2018-08-24T08:18:32.789Z,1.70
2018-08-24T08:19:32.756Z,1.80
2018-08-24T08:20:32.710Z,1.80
2018-08-24T08:21:32.700Z,1.80
2018-08-24T08:22:32.685Z,2.00
2018-08-24T08:23:32.688Z,1.80
2018-08-24T08:24:32.726Z,2.00
2018-08-24T08:25:32.697Z,1.70
2018-08-24T08:26:32.640Z,1.90
2018-08-24T08:27:32.625Z,1.90
2018-08-24T08:28:32.624Z,2.20
2018-08-24T08:29:32.600Z,1.80
2018-08-24T08:30:32.633Z,2.30
2018-08-24T08:31:32.587Z,1.80
2018-08-24T08:32:32.649Z,1.90
2018-08-24T08:33:32.571Z,1.80
2018-08-24T08:34:32.545Z,1.50
2018-08-24T08:35:32.577Z,1.60
2018-08-24T08:36:32.555Z,1.90
2018-08-24T08:37:32.540Z,1.70
2018-08-24T08:38:32.542Z,1.40
2018-08-24T08:39:32.508Z,1.80
2018-08-24T08:40:32.498Z,1.60
2018-08-24T08:41:32.546Z,1.50
2018-08-24T08:42:32.496Z,1.60
2018-08-24T08:43:32.478Z,1.70
2018-08-24T08:44:32.454Z,2.00
2018-08-24T08:45:32.447Z,1.80
2018-08-24T08:46:32.480Z,1.90
2018-08-24T08:47:32.422Z,1.70
2018-08-24T08:48:32.406Z,1.70
2018-08-24T08:49:32.389Z,1.60
2018-08-24T08:50:32.376Z,1.60
2018-08-24T08:51:32.425Z,1.60
2018-08-24T08:52:32.354Z,1.70
2018-08-24T08:53:32.381Z,1.40
2018-08-24T08:54:32.330Z,1.40
2018-08-24T08:55:32.317Z,1.70
2018-08-24T08:56:32.342Z,1.90
2018-08-24T08:57:32.306Z,1.90
2018-08-24T08:58:32.290Z,1.90
2018-08-24T08:59:32.282Z,1.70
2018-08-24T09:00:32.266Z,2.10
2018-08-24T09:01:32.284Z,2.10
2018-08-24T09:02:32.242Z,2.30
2018-08-24T09:03:32.232Z,2.60
2018-08-24T09:04:32.216Z,2.60
2018-08-24T09:05:32.208Z,2.20
2018-08-24T09:06:32.327Z,2.30
2018-08-24T09:07:32.188Z,2.30
2018-08-24T09:08:32.168Z,2.30
2018-08-24T09:09:32.164Z,2.30
2018-08-24T09:10:32.148Z,2.30
2018-08-24T09:11:32.164Z,2.30
2018-08-24T09:12:32.121Z,2.30
2018-08-24T09:13:32.112Z,2.30
2018-08-24T09:14:32.095Z,2.30
2018-08-24T09:15:32.093Z,2.30
2018-08-24T09:16:32.110Z,2.60
2018-08-24T09:17:32.067Z,2.50
2018-08-24T09:18:32.121Z,2.50
2018-08-24T09:19:32.042Z,2.30
2018-08-24T09:20:32.028Z,2.30
2018-08-24T09:21:32.049Z,2.50
2018-08-24T09:22:32.031Z,3.20
2018-08-24T09:23:31.993Z,2.80
2018-08-24T09:24:31.992Z,2.80
2018-08-24T09:25:32.000Z,2.80
2018-08-24T09:26:31.996Z,2.80
2018-08-24T09:27:31.953Z,2.70
2018-08-24T09:28:31.942Z,2.60
2018-08-24T09:29:31.932Z,2.70
2018-08-24T09:30:31.918Z,3.10
2018-08-24T09:31:31.941Z,2.90
2018-08-24T09:32:31.985Z,2.70
2018-08-24T09:33:31.882Z,3.00
2018-08-24T09:34:31.879Z,3.30
2018-08-24T09:35:31.871Z,3.10
2018-08-24T09:36:31.898Z,3.20
2018-08-24T09:37:31.841Z,3.20
2018-08-24T09:38:31.826Z,3.30
2018-08-24T09:39:31.821Z,3.50
2018-08-24T09:40:31.807Z,3.30
2018-08-24T09:41:31.848Z,3.20
2018-08-24T09:42:31.794Z,3.00
2018-08-24T09:43:31.784Z,3.30
2018-08-24T09:44:31.774Z,3.20
2018-08-24T09:45:31.778Z,3.20
2018-08-24T09:46:31.788Z,3.20
2018-08-24T09:47:31.758Z,3.20
2018-08-24T09:48:31.728Z,3.40
2018-08-24T09:49:31.718Z,2.80
2018-08-24T09:50:31.702Z,3.20
2018-08-24T09:51:31.720Z,3.20
2018-08-24T09:52:31.711Z,3.00
2018-08-24T09:53:31.672Z,3.10
2018-08-24T09:54:31.660Z,2.90
2018-08-24T09:55:31.641Z,3.20
2018-08-24T09:56:31.632Z,3.20
2018-08-24T09:57:31.698Z,3.30
2018-08-24T09:58:31.640Z,3.20
2018-08-24T09:59:31.613Z,3.30
2018-08-24T10:00:31.600Z,3.20
2018-08-24T10:01:31.584Z,3.40
2018-08-24T10:02:31.630Z,3.20
2018-08-24T10:03:31.565Z,3.20
2018-08-24T10:04:31.560Z,3.40
2018-08-24T10:05:31.534Z,3.40
2018-08-24T10:06:31.602Z,3.30
2018-08-24T10:07:31.568Z,3.30
2018-08-24T10:08:31.508Z,3.50
2018-08-24T10:09:31.514Z,3.40
2018-08-24T10:10:31.482Z,3.30
2018-08-24T10:11:31.487Z,3.40
2018-08-24T10:12:31.573Z,3.20
2018-08-24T10:13:31.443Z,3.10
2018-08-24T10:14:31.437Z,3.30
2018-08-24T10:15:31.424Z,3.10
2018-08-24T10:16:31.423Z,3.40
2018-08-24T10:17:31.445Z,3.20
2018-08-24T10:18:31.380Z,3.20
2018-08-24T10:19:31.406Z,3.40
2018-08-24T10:20:31.363Z,3.20
2018-08-24T10:21:31.366Z,5.30
2018-08-24T10:22:31.408Z,4.50
2018-08-24T10:23:31.329Z,2.90
2018-08-24T10:24:31.328Z,2.90
2018-08-24T10:25:31.310Z,2.90
2018-08-24T10:26:31.310Z,3.10
2018-08-24T10:27:31.330Z,3.30
2018-08-24T10:28:31.289Z,3.20
2018-08-24T10:29:31.301Z,3.20
2018-08-24T10:30:31.260Z,3.20
2018-08-24T10:31:31.303Z,3.20
2018-08-24T10:32:31.240Z,3.30
2018-08-24T10:33:31.234Z,3.60
2018-08-24T10:34:31.250Z,3.20
2018-08-24T10:35:31.212Z,3.40
2018-08-24T10:36:31.238Z,3.80
2018-08-24T10:37:31.189Z,3.10
2018-08-24T10:38:31.176Z,3.10
2018-08-24T10:39:31.202Z,3.50
2018-08-24T10:40:31.162Z,3.20
2018-08-24T10:41:31.146Z,3.20
2018-08-24T10:42:31.158Z,2.80
2018-08-24T10:43:31.131Z,3.50
2018-08-24T10:44:31.103Z,3.40
2018-08-24T10:45:31.096Z,3.50
2018-08-24T10:46:31.081Z,3.30
2018-08-24T10:47:31.094Z,3.60
2018-08-24T10:48:31.062Z,3.30
2018-08-24T10:49:31.243Z,3.40
2018-08-24T10:50:31.030Z,3.50
2018-08-24T10:51:31.059Z,3.30
2018-08-24T10:52:31.047Z,4.80
2018-08-24T10:53:31.003Z,3.30
2018-08-24T10:54:31.032Z,3.20
2018-08-24T10:55:30.987Z,2.90
2018-08-24T10:56:30.964Z,3.00
2018-08-24T10:57:30.983Z,3.30
2018-08-24T10:58:30.962Z,3.50
2018-08-24T10:59:30.974Z,3.30
2018-08-24T11:00:30.919Z,3.20
2018-08-24T11:01:30.912Z,3.20
2018-08-24T11:02:30.902Z,7.20
2018-08-24T11:03:30.913Z,3.30
2018-08-24T11:04:31.206Z,3.00
2018-08-24T11:05:30.959Z,3.20
2018-08-24T11:06:30.851Z,3.10
2018-08-24T11:07:30.871Z,2.80
2018-08-24T11:08:30.829Z,3.40
2018-08-24T11:09:30.817Z,3.10
2018-08-24T11:10:30.806Z,2.60
2018-08-24T11:11:30.797Z,3.10
2018-08-24T11:12:30.811Z,3.00
2018-08-24T11:13:30.776Z,2.80
2018-08-24T11:14:30.755Z,3.10
2018-08-24T11:15:30.747Z,3.20
2018-08-24T11:16:30.733Z,3.00
2018-08-24T11:17:30.772Z,3.20
2018-08-24T11:18:30.727Z,2.80
2018-08-24T11:19:30.711Z,3.10
2018-08-24T11:20:30.706Z,3.00
2018-08-24T11:21:30.692Z,2.40
2018-08-24T11:22:30.724Z,3.00
2018-08-24T11:23:30.671Z,3.10
2018-08-24T11:24:30.651Z,2.80
2018-08-24T11:25:30.652Z,3.10
2018-08-24T11:26:30.632Z,3.00
2018-08-24T11:27:30.656Z,3.00
2018-08-24T11:28:30.627Z,2.80
2018-08-24T11:29:30.629Z,2.70
2018-08-24T11:30:30.590Z,2.60
2018-08-24T11:31:30.574Z,2.80
2018-08-24T11:32:30.568Z,2.70
2018-08-24T11:33:30.600Z,2.80
2018-08-24T11:34:30.540Z,3.00
2018-08-24T11:35:30.531Z,3.20
2018-08-24T11:36:30.522Z,3.00
2018-08-24T11:37:30.545Z,2.70
2018-08-24T11:38:30.491Z,2.90
2018-08-24T11:39:30.490Z,3.10
2018-08-24T11:40:30.476Z,3.10
2018-08-24T11:41:30.496Z,2.90
2018-08-24T11:42:30.454Z,2.80
2018-08-24T11:43:30.440Z,2.80
2018-08-24T11:44:30.461Z,3.80
2018-08-24T11:45:30.470Z,3.00
2018-08-24T11:46:30.410Z,2.70
2018-08-24T11:47:30.394Z,2.50
2018-08-24T11:48:30.387Z,3.10
2018-08-24T11:49:30.364Z,2.40
2018-08-24T11:50:30.382Z,2.50
2018-08-24T11:51:30.345Z,2.90
2018-08-24T11:52:30.338Z,2.90
2018-08-24T11:53:30.327Z,3.00
2018-08-24T11:54:30.358Z,3.10
2018-08-24T11:55:30.330Z,2.60
2018-08-24T11:56:30.285Z,2.80
2018-08-24T11:57:30.282Z,2.90
2018-08-24T11:58:30.259Z,3.10
2018-08-24T11:59:30.260Z,2.90
2018-08-24T12:00:30.273Z,2.80
2018-08-24T12:01:30.232Z,2.70
2018-08-24T12:02:30.276Z,2.90
2018-08-24T12:03:30.216Z,3.10
2018-08-24T12:04:30.193Z,3.10
2018-08-24T12:05:30.183Z,3.10
2018-08-24T12:06:30.222Z,3.00
2018-08-24T12:07:30.157Z,3.10
2018-08-24T12:08:30.210Z,3.30
2018-08-24T12:09:30.167Z,2.80
2018-08-24T12:10:30.130Z,3.00
2018-08-24T12:11:30.115Z,3.40
2018-08-24T12:12:30.169Z,4.10
2018-08-24T12:13:30.097Z,4.30
2018-08-24T12:14:30.114Z,4.40
2018-08-24T12:15:30.073Z,4.40
2018-08-24T12:16:30.072Z,4.70
2018-08-24T12:17:30.048Z,4.60
2018-08-24T12:18:30.109Z,4.20
2018-08-24T12:19:30.058Z,4.40
2018-08-24T12:20:30.020Z,4.10
2018-08-24T12:21:30.047Z,4.20
2018-08-24T12:22:30.010Z,4.10
2018-08-24T12:23:30.039Z,4.10
2018-08-24T12:24:30.060Z,3.90
2018-08-24T12:25:30.007Z,4.10
2018-08-24T12:26:29.956Z,4.60
2018-08-24T12:27:29.959Z,4.60
2018-08-24T12:28:30.008Z,5.40
2018-08-24T12:29:29.920Z,5.10
2018-08-24T12:30:29.914Z,5.10
2018-08-24T12:31:29.919Z,5.10
2018-08-24T12:32:29.893Z,4.90
2018-08-24T12:33:29.935Z,4.90
2018-08-24T12:34:29.862Z,4.90
2018-08-24T12:35:29.862Z,5.00
2018-08-24T12:36:29.848Z,4.70
2018-08-24T12:37:29.841Z,5.00
2018-08-24T12:38:29.859Z,5.40
2018-08-24T12:39:29.806Z,6.20
2018-08-24T12:40:29.794Z,5.40
2018-08-24T12:41:29.792Z,5.50
2018-08-24T12:42:29.808Z,5.50
2018-08-24T12:43:29.783Z,5.00
2018-08-24T12:44:29.770Z,5.10
2018-08-24T12:45:29.781Z,4.80
2018-08-24T12:46:29.730Z,4.70
2018-08-24T12:47:29.718Z,4.30
2018-08-24T12:48:29.708Z,5.00
2018-08-24T12:49:29.729Z,4.90
2018-08-24T12:50:29.724Z,4.80
2018-08-24T12:51:29.670Z,5.00
2018-08-24T12:52:29.669Z,5.10
2018-08-24T12:53:29.639Z,5.90
2018-08-24T12:54:29.659Z,6.10
2018-08-24T12:55:29.678Z,6.10
2018-08-24T12:56:29.608Z,6.30
2018-08-24T12:57:29.605Z,6.80
2018-08-24T12:58:29.611Z,6.70
2018-08-24T12:59:29.585Z,6.10
2018-08-24T13:00:29.617Z,6.00
2018-08-24T13:01:29.555Z,5.90
2018-08-24T13:02:29.544Z,6.00
2018-08-24T13:03:29.534Z,6.00
2018-08-24T13:04:29.525Z,5.50
2018-08-24T13:05:29.620Z,5.70